sensor_id;sensor_type;location;lat;lon;timestamp;temperature;humidity
52451;DHT22;38366;53.176;6.540;2023-04-24T00:01:48;11.20;99.90
52451;DHT22;38366;53.176;6.540;2023-04-24T00:04:14;11.20;99.90
52451;DHT22;38366;53.176;6.540;2023-04-24T00:06:42;11.20;99.90
52451;DHT22;38366;53.176;6.540;2023-04-24T00:09:09;11.20;99.90
52451;DHT22;38366;53.176;6.540;2023-04-24T00:11:36;11.30;99.90
52451;DHT22;38366;53.176;6.540;2023-04-24T00:14:02;11.30;99.90
52451;DHT22;38366;53.176;6.540;2023-04-24T00:16:28;11.30;99.90
52451;DHT22;38366;53.176;6.540;2023-04-24T00:18:54;11.30;99.90
52451;DHT22;38366;53.176;6.540;2023-04-24T00:21:20;11.30;99.90
52451;DHT22;38366;53.176;6.540;2023-04-24T00:23:47;11.30;99.90
52451;DHT22;38366;53.176;6.540;2023-04-24T00:26:13;11.30;99.90
52451;DHT22;38366;53.176;6.540;2023-04-24T00:28:39;11.30;99.90
52451;DHT22;38366;53.176;6.540;2023-04-24T00:31:05;11.40;99.90
52451;DHT22;38366;53.176;6.540;2023-04-24T00:33:30;11.40;99.90
52451;DHT22;38366;53.176;6.540;2023-04-24T00:35:56;11.40;99.90
52451;DHT22;38366;53.176;6.540;2023-04-24T00:38:22;11.30;99.90
52451;DHT22;38366;53.176;6.540;2023-04-24T00:40:48;11.30;99.90
52451;DHT22;38366;53.176;6.540;2023-04-24T00:43:16;11.30;99.90
52451;DHT22;38366;53.176;6.540;2023-04-24T00:45:41;11.20;99.90
52451;DHT22;38366;53.176;6.540;2023-04-24T00:48:07;11.20;99.90
52451;DHT22;38366;53.176;6.540;2023-04-24T00:50:35;11.10;99.90
52451;DHT22;38366;53.176;6.540;2023-04-24T00:53:01;11.10;99.90
52451;DHT22;38366;53.176;6.540;2023-04-24T00:55:26;11.10;99.90
52451;DHT22;38366;53.176;6.540;2023-04-24T00:57:52;11.00;99.90
52451;DHT22;38366;53.176;6.540;2023-04-24T01:00:18;11.00;99.90
52451;DHT22;38366;53.176;6.540;2023-04-24T01:02:44;11.00;99.90
52451;DHT22;38366;53.176;6.540;2023-04-24T01:05:12;11.00;99.90
52451;DHT22;38366;53.176;6.540;2023-04-24T01:07:39;11.00;99.90
52451;DHT22;38366;53.176;6.540;2023-04-24T01:10:07;10.90;99.90
52451;DHT22;38366;53.176;6.540;2023-04-24T01:12:33;10.90;99.90
52451;DHT22;38366;53.176;6.540;2023-04-24T01:14:59;10.90;99.90
52451;DHT22;38366;53.176;6.540;2023-04-24T01:17:25;10.90;99.90
52451;DHT22;38366;53.176;6.540;2023-04-24T01:19:50;10.90;99.90
52451;DHT22;38366;53.176;6.540;2023-04-24T01:22:19;10.90;99.90
52451;DHT22;38366;53.176;6.540;2023-04-24T01:24:46;10.90;99.90
52451;DHT22;38366;53.176;6.540;2023-04-24T01:27:12;10.90;99.90
52451;DHT22;38366;53.176;6.540;2023-04-24T01:29:38;10.80;99.90
52451;DHT22;38366;53.176;6.540;2023-04-24T01:32:04;10.80;99.90
52451;DHT22;38366;53.176;6.540;2023-04-24T01:34:31;10.70;99.90
52451;DHT22;38366;53.176;6.540;2023-04-24T01:36:56;10.70;99.90
52451;DHT22;38366;53.176;6.540;2023-04-24T01:39:22;10.70;99.90
52451;DHT22;38366;53.176;6.540;2023-04-24T01:41:51;10.70;99.90
52451;DHT22;38366;53.176;6.540;2023-04-24T01:44:17;10.60;99.90
52451;DHT22;38366;53.176;6.540;2023-04-24T01:46:43;10.60;99.90
52451;DHT22;38366;53.176;6.540;2023-04-24T01:49:09;10.60;99.90
52451;DHT22;38366;53.176;6.540;2023-04-24T01:51:35;10.60;99.90
52451;DHT22;38366;53.176;6.540;2023-04-24T01:54:01;10.60;99.90
52451;DHT22;38366;53.176;6.540;2023-04-24T01:56:29;10.60;99.90
52451;DHT22;38366;53.176;6.540;2023-04-24T01:58:55;10.60;99.90
52451;DHT22;38366;53.176;6.540;2023-04-24T02:01:23;10.60;99.90
52451;DHT22;38366;53.176;6.540;2023-04-24T02:03:49;10.60;99.90
52451;DHT22;38366;53.176;6.540;2023-04-24T02:06:15;10.60;99.90
52451;DHT22;38366;53.176;6.540;2023-04-24T02:08:40;10.60;99.90
52451;DHT22;38366;53.176;6.540;2023-04-24T02:11:08;10.60;99.90
52451;DHT22;38366;53.176;6.540;2023-04-24T02:13:33;10.60;99.90
52451;DHT22;38366;53.176;6.540;2023-04-24T02:15:59;10.60;99.90
52451;DHT22;38366;53.176;6.540;2023-04-24T02:18:25;10.70;99.90
52451;DHT22;38366;53.176;6.540;2023-04-24T02:20:50;10.60;99.90
52451;DHT22;38366;53.176;6.540;2023-04-24T02:23:16;10.60;99.90
52451;DHT22;38366;53.176;6.540;2023-04-24T02:25:42;10.60;99.90
52451;DHT22;38366;53.176;6.540;2023-04-24T02:28:07;10.60;99.90
52451;DHT22;38366;53.176;6.540;2023-04-24T02:30:33;10.60;99.90
52451;DHT22;38366;53.176;6.540;2023-04-24T02:32:58;10.60;99.90
52451;DHT22;38366;53.176;6.540;2023-04-24T02:35:25;10.60;99.90
52451;DHT22;38366;53.176;6.540;2023-04-24T02:37:50;10.60;99.90
52451;DHT22;38366;53.176;6.540;2023-04-24T02:40:16;10.60;99.90
52451;DHT22;38366;53.176;6.540;2023-04-24T02:42:42;10.60;99.90
52451;DHT22;38366;53.176;6.540;2023-04-24T02:45:08;10.60;99.90
52451;DHT22;38366;53.176;6.540;2023-04-24T02:47:33;10.60;99.90
52451;DHT22;38366;53.176;6.540;2023-04-24T02:49:59;10.60;99.90
52451;DHT22;38366;53.176;6.540;2023-04-24T02:52:25;10.60;99.90
52451;DHT22;38366;53.176;6.540;2023-04-24T02:54:50;10.70;99.90
52451;DHT22;38366;53.176;6.540;2023-04-24T02:57:16;10.60;99.90
52451;DHT22;38366;53.176;6.540;2023-04-24T02:59:42;10.70;99.90
52451;DHT22;38366;53.176;6.540;2023-04-24T03:02:08;10.60;99.90
52451;DHT22;38366;53.176;6.540;2023-04-24T03:04:33;10.60;99.90
52451;DHT22;38366;53.176;6.540;2023-04-24T03:06:59;10.60;99.90
52451;DHT22;38366;53.176;6.540;2023-04-24T03:09:26;10.60;99.90
52451;DHT22;38366;53.176;6.540;2023-04-24T03:11:52;10.60;99.90
52451;DHT22;38366;53.176;6.540;2023-04-24T03:14:17;10.60;99.90
52451;DHT22;38366;53.176;6.540;2023-04-24T03:16:43;10.60;99.90
52451;DHT22;38366;53.176;6.540;2023-04-24T03:19:09;10.60;99.90
52451;DHT22;38366;53.176;6.540;2023-04-24T03:21:34;10.60;99.90
52451;DHT22;38366;53.176;6.540;2023-04-24T03:24:01;10.60;99.90
52451;DHT22;38366;53.176;6.540;2023-04-24T03:26:27;10.60;99.90
52451;DHT22;38366;53.176;6.540;2023-04-24T03:28:53;10.60;99.90
52451;DHT22;38366;53.176;6.540;2023-04-24T03:31:18;10.60;99.90
52451;DHT22;38366;53.176;6.540;2023-04-24T03:33:46;10.60;99.90
52451;DHT22;38366;53.176;6.540;2023-04-24T03:36:12;10.60;99.90
52451;DHT22;38366;53.176;6.540;2023-04-24T03:38:37;10.60;99.90
52451;DHT22;38366;53.176;6.540;2023-04-24T03:41:03;10.60;99.90
52451;DHT22;38366;53.176;6.540;2023-04-24T03:43:29;10.70;99.90
52451;DHT22;38366;53.176;6.540;2023-04-24T03:45:54;10.60;99.90
52451;DHT22;38366;53.176;6.540;2023-04-24T03:48:20;10.60;99.90
52451;DHT22;38366;53.176;6.540;2023-04-24T03:50:46;10.60;99.90
52451;DHT22;38366;53.176;6.540;2023-04-24T03:53:12;10.60;99.90
52451;DHT22;38366;53.176;6.540;2023-04-24T03:55:37;10.60;99.90
52451;DHT22;38366;53.176;6.540;2023-04-24T03:58:03;10.60;99.90
52451;DHT22;38366;53.176;6.540;2023-04-24T04:00:29;10.50;99.90
52451;DHT22;38366;53.176;6.540;2023-04-24T04:02:57;10.60;99.90
52451;DHT22;38366;53.176;6.540;2023-04-24T04:05:22;10.60;99.90
52451;DHT22;38366;53.176;6.540;2023-04-24T04:07:48;10.60;99.90
52451;DHT22;38366;53.176;6.540;2023-04-24T04:10:13;10.50;99.90
52451;DHT22;38366;53.176;6.540;2023-04-24T04:12:39;10.50;99.90
52451;DHT22;38366;53.176;6.540;2023-04-24T04:15:05;10.50;99.90
52451;DHT22;38366;53.176;6.540;2023-04-24T04:17:32;10.60;99.90
52451;DHT22;38366;53.176;6.540;2023-04-24T04:19:58;10.50;99.90
52451;DHT22;38366;53.176;6.540;2023-04-24T04:22:23;10.50;99.90
52451;DHT22;38366;53.176;6.540;2023-04-24T04:24:49;10.50;99.90
52451;DHT22;38366;53.176;6.540;2023-04-24T04:27:16;10.50;99.90
52451;DHT22;38366;53.176;6.540;2023-04-24T04:29:42;10.50;99.90
52451;DHT22;38366;53.176;6.540;2023-04-24T04:32:08;10.40;99.90
52451;DHT22;38366;53.176;6.540;2023-04-24T04:34:33;10.50;99.90
52451;DHT22;38366;53.176;6.540;2023-04-24T04:36:59;10.40;99.90
52451;DHT22;38366;53.176;6.540;2023-04-24T04:39:27;10.40;99.90
52451;DHT22;38366;53.176;6.540;2023-04-24T04:41:53;10.40;99.90
52451;DHT22;38366;53.176;6.540;2023-04-24T04:44:19;10.40;99.90
52451;DHT22;38366;53.176;6.540;2023-04-24T04:46:45;10.40;99.90
52451;DHT22;38366;53.176;6.540;2023-04-24T04:49:11;10.40;99.90
52451;DHT22;38366;53.176;6.540;2023-04-24T04:51:37;10.40;99.90
52451;DHT22;38366;53.176;6.540;2023-04-24T04:54:02;10.30;99.90
52451;DHT22;38366;53.176;6.540;2023-04-24T04:56:28;11.10;99.90
52451;DHT22;38366;53.176;6.540;2023-04-24T04:58:54;10.30;99.90
52451;DHT22;38366;53.176;6.540;2023-04-24T05:01:19;10.30;99.90
52451;DHT22;38366;53.176;6.540;2023-04-24T05:03:45;10.30;99.90
52451;DHT22;38366;53.176;6.540;2023-04-24T05:06:11;10.30;99.90
52451;DHT22;38366;53.176;6.540;2023-04-24T05:08:36;10.20;99.90
52451;DHT22;38366;53.176;6.540;2023-04-24T05:11:02;10.20;99.90
52451;DHT22;38366;53.176;6.540;2023-04-24T05:13:28;10.20;99.90
52451;DHT22;38366;53.176;6.540;2023-04-24T05:15:53;10.20;99.90
52451;DHT22;38366;53.176;6.540;2023-04-24T05:18:19;10.30;99.90
52451;DHT22;38366;53.176;6.540;2023-04-24T05:20:45;10.30;99.90
52451;DHT22;38366;53.176;6.540;2023-04-24T05:23:10;10.30;99.90
52451;DHT22;38366;53.176;6.540;2023-04-24T05:25:37;10.40;99.90
52451;DHT22;38366;53.176;6.540;2023-04-24T05:28:04;10.40;99.90
52451;DHT22;38366;53.176;6.540;2023-04-24T05:30:30;10.40;99.90
52451;DHT22;38366;53.176;6.540;2023-04-24T05:32:56;10.40;99.90
52451;DHT22;38366;53.176;6.540;2023-04-24T05:35:21;10.40;99.90
52451;DHT22;38366;53.176;6.540;2023-04-24T05:37:47;10.40;99.90
52451;DHT22;38366;53.176;6.540;2023-04-24T05:40:13;10.40;99.90
52451;DHT22;38366;53.176;6.540;2023-04-24T05:42:38;10.40;99.90
52451;DHT22;38366;53.176;6.540;2023-04-24T05:45:05;10.40;99.90
52451;DHT22;38366;53.176;6.540;2023-04-24T05:47:31;10.40;99.90
52451;DHT22;38366;53.176;6.540;2023-04-24T05:49:56;10.30;99.90
52451;DHT22;38366;53.176;6.540;2023-04-24T05:52:22;10.30;99.90
52451;DHT22;38366;53.176;6.540;2023-04-24T05:54:48;10.20;99.90
52451;DHT22;38366;53.176;6.540;2023-04-24T05:57:14;10.20;99.90
52451;DHT22;38366;53.176;6.540;2023-04-24T05:59:40;10.20;99.90
52451;DHT22;38366;53.176;6.540;2023-04-24T06:02:06;10.20;99.90
52451;DHT22;38366;53.176;6.540;2023-04-24T06:04:32;10.10;99.90
52451;DHT22;38366;53.176;6.540;2023-04-24T06:06:58;10.10;99.90
52451;DHT22;38366;53.176;6.540;2023-04-24T06:09:25;10.00;99.90
52451;DHT22;38366;53.176;6.540;2023-04-24T06:11:51;10.00;99.90
52451;DHT22;38366;53.176;6.540;2023-04-24T06:14:19;10.00;99.90
52451;DHT22;38366;53.176;6.540;2023-04-24T06:16:45;10.00;99.90
52451;DHT22;38366;53.176;6.540;2023-04-24T06:19:10;10.10;99.90
52451;DHT22;38366;53.176;6.540;2023-04-24T06:21:36;10.10;99.90
52451;DHT22;38366;53.176;6.540;2023-04-24T06:24:02;10.10;99.90
52451;DHT22;38366;53.176;6.540;2023-04-24T06:26:29;10.10;99.90
52451;DHT22;38366;53.176;6.540;2023-04-24T06:28:54;10.10;99.90
52451;DHT22;38366;53.176;6.540;2023-04-24T06:31:20;10.10;99.90
52451;DHT22;38366;53.176;6.540;2023-04-24T06:33:48;10.20;99.90
52451;DHT22;38366;53.176;6.540;2023-04-24T06:36:13;10.20;99.90
52451;DHT22;38366;53.176;6.540;2023-04-24T06:38:39;10.20;99.90
52451;DHT22;38366;53.176;6.540;2023-04-24T06:41:05;10.20;99.90
52451;DHT22;38366;53.176;6.540;2023-04-24T06:43:31;10.20;99.90
52451;DHT22;38366;53.176;6.540;2023-04-24T06:45:58;10.20;99.90
52451;DHT22;38366;53.176;6.540;2023-04-24T06:48:24;10.20;99.90
52451;DHT22;38366;53.176;6.540;2023-04-24T06:50:50;10.20;99.90
52451;DHT22;38366;53.176;6.540;2023-04-24T06:53:16;10.20;99.90
52451;DHT22;38366;53.176;6.540;2023-04-24T06:55:42;10.20;99.90
52451;DHT22;38366;53.176;6.540;2023-04-24T06:58:08;10.20;99.90
52451;DHT22;38366;53.176;6.540;2023-04-24T07:00:34;10.20;99.90
52451;DHT22;38366;53.176;6.540;2023-04-24T07:03:00;10.20;99.90
52451;DHT22;38366;53.176;6.540;2023-04-24T07:05:26;10.20;99.90
52451;DHT22;38366;53.176;6.540;2023-04-24T07:07:51;10.20;99.90
52451;DHT22;38366;53.176;6.540;2023-04-24T07:10:17;10.20;99.90
52451;DHT22;38366;53.176;6.540;2023-04-24T07:12:43;10.20;99.90
52451;DHT22;38366;53.176;6.540;2023-04-24T07:15:09;10.30;99.90
52451;DHT22;38366;53.176;6.540;2023-04-24T07:17:36;10.30;99.90
52451;DHT22;38366;53.176;6.540;2023-04-24T07:20:04;10.30;99.90
52451;DHT22;38366;53.176;6.540;2023-04-24T07:22:31;10.20;99.90
52451;DHT22;38366;53.176;6.540;2023-04-24T07:24:56;10.30;99.90
52451;DHT22;38366;53.176;6.540;2023-04-24T07:27:22;10.30;99.90
52451;DHT22;38366;53.176;6.540;2023-04-24T07:29:47;10.20;99.90
52451;DHT22;38366;53.176;6.540;2023-04-24T07:32:13;10.30;99.90
52451;DHT22;38366;53.176;6.540;2023-04-24T07:34:39;10.20;99.90
52451;DHT22;38366;53.176;6.540;2023-04-24T07:37:05;10.20;99.90
52451;DHT22;38366;53.176;6.540;2023-04-24T07:39:31;10.20;99.90
52451;DHT22;38366;53.176;6.540;2023-04-24T07:41:57;10.10;99.90
52451;DHT22;38366;53.176;6.540;2023-04-24T07:44:24;10.20;99.90
52451;DHT22;38366;53.176;6.540;2023-04-24T07:46:50;10.10;99.90
52451;DHT22;38366;53.176;6.540;2023-04-24T07:49:16;10.00;99.90
52451;DHT22;38366;53.176;6.540;2023-04-24T07:51:42;10.00;99.90
52451;DHT22;38366;53.176;6.540;2023-04-24T07:54:07;10.10;99.90
52451;DHT22;38366;53.176;6.540;2023-04-24T07:56:33;10.10;99.90
52451;DHT22;38366;53.176;6.540;2023-04-24T07:58:59;10.10;99.90
52451;DHT22;38366;53.176;6.540;2023-04-24T08:01:26;10.10;99.90
52451;DHT22;38366;53.176;6.540;2023-04-24T08:03:52;10.10;99.90
52451;DHT22;38366;53.176;6.540;2023-04-24T08:06:18;10.00;99.90
52451;DHT22;38366;53.176;6.540;2023-04-24T08:08:44;10.00;99.90
52451;DHT22;38366;53.176;6.540;2023-04-24T08:11:09;10.00;99.90
52451;DHT22;38366;53.176;6.540;2023-04-24T08:13:35;9.90;99.90
52451;DHT22;38366;53.176;6.540;2023-04-24T08:16:01;9.90;99.90
52451;DHT22;38366;53.176;6.540;2023-04-24T08:18:27;9.90;99.90
52451;DHT22;38366;53.176;6.540;2023-04-24T08:20:52;9.80;99.90
52451;DHT22;38366;53.176;6.540;2023-04-24T08:23:18;9.80;99.90
52451;DHT22;38366;53.176;6.540;2023-04-24T08:25:44;9.80;99.90
52451;DHT22;38366;53.176;6.540;2023-04-24T08:28:10;9.80;99.90
52451;DHT22;38366;53.176;6.540;2023-04-24T08:30:36;9.70;99.90
52451;DHT22;38366;53.176;6.540;2023-04-24T08:33:03;9.70;99.90
52451;DHT22;38366;53.176;6.540;2023-04-24T08:35:29;9.60;99.90
52451;DHT22;38366;53.176;6.540;2023-04-24T08:37:55;9.70;99.90
52451;DHT22;38366;53.176;6.540;2023-04-24T08:40:27;9.60;99.90
52451;DHT22;38366;53.176;6.540;2023-04-24T08:42:55;9.70;99.90
52451;DHT22;38366;53.176;6.540;2023-04-24T08:45:22;9.60;99.90
52451;DHT22;38366;53.176;6.540;2023-04-24T08:47:48;9.50;99.90
52451;DHT22;38366;53.176;6.540;2023-04-24T08:50:15;9.50;99.90
52451;DHT22;38366;53.176;6.540;2023-04-24T08:52:42;9.50;99.90
52451;DHT22;38366;53.176;6.540;2023-04-24T08:55:08;9.40;99.90
52451;DHT22;38366;53.176;6.540;2023-04-24T08:57:35;9.40;99.90
52451;DHT22;38366;53.176;6.540;2023-04-24T09:00:01;9.40;99.90
52451;DHT22;38366;53.176;6.540;2023-04-24T09:02:28;9.40;99.90
52451;DHT22;38366;53.176;6.540;2023-04-24T09:04:55;9.30;99.90
52451;DHT22;38366;53.176;6.540;2023-04-24T09:07:24;9.30;99.90
52451;DHT22;38366;53.176;6.540;2023-04-24T09:09:51;9.30;99.90
52451;DHT22;38366;53.176;6.540;2023-04-24T09:12:18;9.30;99.90
52451;DHT22;38366;53.176;6.540;2023-04-24T09:14:44;9.30;99.90
52451;DHT22;38366;53.176;6.540;2023-04-24T09:17:11;9.40;99.90
52451;DHT22;38366;53.176;6.540;2023-04-24T09:19:37;9.40;99.90
52451;DHT22;38366;53.176;6.540;2023-04-24T09:22:07;9.40;99.90
52451;DHT22;38366;53.176;6.540;2023-04-24T09:24:34;9.40;99.90
52451;DHT22;38366;53.176;6.540;2023-04-24T09:27:01;9.50;99.90
52451;DHT22;38366;53.176;6.540;2023-04-24T09:29:27;9.50;99.90
52451;DHT22;38366;53.176;6.540;2023-04-24T09:31:53;9.50;99.90
52451;DHT22;38366;53.176;6.540;2023-04-24T09:34:23;9.50;99.90
52451;DHT22;38366;53.176;6.540;2023-04-24T09:36:49;9.50;99.90
52451;DHT22;38366;53.176;6.540;2023-04-24T09:39:16;9.60;99.90
52451;DHT22;38366;53.176;6.540;2023-04-24T09:42:03;9.60;99.90
52451;DHT22;38366;53.176;6.540;2023-04-24T09:44:29;9.60;99.90
52451;DHT22;38366;53.176;6.540;2023-04-24T09:46:58;9.60;99.90
52451;DHT22;38366;53.176;6.540;2023-04-24T09:49:29;9.60;99.90
52451;DHT22;38366;53.176;6.540;2023-04-24T09:52:06;9.50;99.90
52451;DHT22;38366;53.176;6.540;2023-04-24T09:54:35;9.40;99.90
52451;DHT22;38366;53.176;6.540;2023-04-24T09:57:06;9.50;99.90
52451;DHT22;38366;53.176;6.540;2023-04-24T09:59:32;9.50;99.90
52451;DHT22;38366;53.176;6.540;2023-04-24T10:01:59;9.60;99.90
52451;DHT22;38366;53.176;6.540;2023-04-24T10:04:28;9.70;99.90
52451;DHT22;38366;53.176;6.540;2023-04-24T10:06:56;9.80;99.90
52451;DHT22;38366;53.176;6.540;2023-04-24T10:09:24;9.90;99.90
52451;DHT22;38366;53.176;6.540;2023-04-24T10:11:51;10.00;99.90
52451;DHT22;38366;53.176;6.540;2023-04-24T10:14:22;10.10;99.90
52451;DHT22;38366;53.176;6.540;2023-04-24T10:16:49;10.10;99.90
52451;DHT22;38366;53.176;6.540;2023-04-24T10:19:16;10.20;99.90
52451;DHT22;38366;53.176;6.540;2023-04-24T10:21:44;10.20;99.90
52451;DHT22;38366;53.176;6.540;2023-04-24T10:24:15;10.40;99.90
52451;DHT22;38366;53.176;6.540;2023-04-24T10:26:41;10.40;99.90
52451;DHT22;38366;53.176;6.540;2023-04-24T10:29:07;10.50;99.90
52451;DHT22;38366;53.176;6.540;2023-04-24T10:31:36;10.60;99.90
52451;DHT22;38366;53.176;6.540;2023-04-24T10:34:04;10.60;99.90
52451;DHT22;38366;53.176;6.540;2023-04-24T10:36:32;10.60;99.90
52451;DHT22;38366;53.176;6.540;2023-04-24T10:39:01;10.50;99.90
52451;DHT22;38366;53.176;6.540;2023-04-24T10:41:27;10.50;99.90
52451;DHT22;38366;53.176;6.540;2023-04-24T10:44:05;10.50;99.90
52451;DHT22;38366;53.176;6.540;2023-04-24T10:46:32;10.60;99.90
52451;DHT22;38366;53.176;6.540;2023-04-24T10:48:58;10.60;99.90
52451;DHT22;38366;53.176;6.540;2023-04-24T10:51:42;10.60;99.90
52451;DHT22;38366;53.176;6.540;2023-04-24T10:54:41;10.60;99.90
52451;DHT22;38366;53.176;6.540;2023-04-24T11:02:38;10.70;99.90
52451;DHT22;38366;53.176;6.540;2023-04-24T11:05:04;10.60;99.90
52451;DHT22;38366;53.176;6.540;2023-04-24T11:10:44;10.50;99.90
52451;DHT22;38366;53.176;6.540;2023-04-24T11:13:10;10.50;99.90
52451;DHT22;38366;53.176;6.540;2023-04-24T11:15:41;10.40;99.90
52451;DHT22;38366;53.176;6.540;2023-04-24T11:18:13;10.40;99.90
52451;DHT22;38366;53.176;6.540;2023-04-24T11:20:42;10.40;99.90
52451;DHT22;38366;53.176;6.540;2023-04-24T11:23:08;10.40;99.90
52451;DHT22;38366;53.176;6.540;2023-04-24T11:25:35;10.40;99.90
52451;DHT22;38366;53.176;6.540;2023-04-24T11:28:05;10.50;99.90
52451;DHT22;38366;53.176;6.540;2023-04-24T11:30:32;10.50;99.90
52451;DHT22;38366;53.176;6.540;2023-04-24T11:33:05;10.60;99.90
52451;DHT22;38366;53.176;6.540;2023-04-24T11:35:35;10.50;99.90
52451;DHT22;38366;53.176;6.540;2023-04-24T11:38:04;10.40;99.90
52451;DHT22;38366;53.176;6.540;2023-04-24T11:40:31;10.40;99.90
52451;DHT22;38366;53.176;6.540;2023-04-24T11:42:59;10.40;99.90
52451;DHT22;38366;53.176;6.540;2023-04-24T11:45:29;10.40;99.90
52451;DHT22;38366;53.176;6.540;2023-04-24T11:47:56;10.50;99.90
52451;DHT22;38366;53.176;6.540;2023-04-24T11:50:23;10.50;99.90
52451;DHT22;38366;53.176;6.540;2023-04-24T11:52:51;10.50;99.90
52451;DHT22;38366;53.176;6.540;2023-04-24T11:57:49;10.50;99.90
52451;DHT22;38366;53.176;6.540;2023-04-24T12:00:16;10.50;99.90
52451;DHT22;38366;53.176;6.540;2023-04-24T12:02:42;10.40;99.90
52451;DHT22;38366;53.176;6.540;2023-04-24T12:05:08;10.40;99.90
52451;DHT22;38366;53.176;6.540;2023-04-24T12:07:41;10.20;99.90
52451;DHT22;38366;53.176;6.540;2023-04-24T12:10:10;10.10;99.90
52451;DHT22;38366;53.176;6.540;2023-04-24T12:12:35;10.00;99.90
52451;DHT22;38366;53.176;6.540;2023-04-24T12:15:06;9.90;99.90
52451;DHT22;38366;53.176;6.540;2023-04-24T12:17:33;9.90;99.90
52451;DHT22;38366;53.176;6.540;2023-04-24T12:20:03;9.80;99.90
52451;DHT22;38366;53.176;6.540;2023-04-24T12:25:16;9.90;99.90
52451;DHT22;38366;53.176;6.540;2023-04-24T12:27:43;10.00;99.90
52451;DHT22;38366;53.176;6.540;2023-04-24T12:30:18;10.20;99.90
52451;DHT22;38366;53.176;6.540;2023-04-24T12:32:49;10.20;99.90
52451;DHT22;38366;53.176;6.540;2023-04-24T12:35:22;10.40;99.90
52451;DHT22;38366;53.176;6.540;2023-04-24T12:37:48;10.50;99.90
52451;DHT22;38366;53.176;6.540;2023-04-24T12:40:14;10.60;99.90
52451;DHT22;38366;53.176;6.540;2023-04-24T12:42:58;10.60;99.90
52451;DHT22;38366;53.176;6.540;2023-04-24T12:45:24;10.50;99.90
52451;DHT22;38366;53.176;6.540;2023-04-24T12:47:50;10.40;99.90
52451;DHT22;38366;53.176;6.540;2023-04-24T12:50:16;10.40;99.90
52451;DHT22;38366;53.176;6.540;2023-04-24T12:52:43;10.40;99.90
52451;DHT22;38366;53.176;6.540;2023-04-24T12:55:09;10.40;99.90
52451;DHT22;38366;53.176;6.540;2023-04-24T12:57:36;10.40;99.90
52451;DHT22;38366;53.176;6.540;2023-04-24T13:00:03;10.40;99.90
52451;DHT22;38366;53.176;6.540;2023-04-24T13:02:30;10.40;99.90
52451;DHT22;38366;53.176;6.540;2023-04-24T13:05:00;10.40;99.90
52451;DHT22;38366;53.176;6.540;2023-04-24T13:07:26;10.30;99.90
52451;DHT22;38366;53.176;6.540;2023-04-24T13:09:54;10.20;99.90
52451;DHT22;38366;53.176;6.540;2023-04-24T13:12:20;10.20;99.90
52451;DHT22;38366;53.176;6.540;2023-04-24T13:14:46;10.10;99.90
52451;DHT22;38366;53.176;6.540;2023-04-24T13:17:12;10.10;99.90
52451;DHT22;38366;53.176;6.540;2023-04-24T13:19:43;10.10;99.90
52451;DHT22;38366;53.176;6.540;2023-04-24T13:22:10;10.20;99.90
52451;DHT22;38366;53.176;6.540;2023-04-24T13:24:37;10.20;99.90
52451;DHT22;38366;53.176;6.540;2023-04-24T13:27:03;10.20;99.90
52451;DHT22;38366;53.176;6.540;2023-04-24T13:29:29;10.30;99.90
52451;DHT22;38366;53.176;6.540;2023-04-24T13:31:55;10.20;99.90
52451;DHT22;38366;53.176;6.540;2023-04-24T13:34:24;10.30;99.90
52451;DHT22;38366;53.176;6.540;2023-04-24T13:36:54;10.30;99.90
52451;DHT22;38366;53.176;6.540;2023-04-24T13:39:21;10.30;99.90
52451;DHT22;38366;53.176;6.540;2023-04-24T13:41:47;10.40;99.90
52451;DHT22;38366;53.176;6.540;2023-04-24T13:44:14;10.50;99.90
52451;DHT22;38366;53.176;6.540;2023-04-24T13:46:41;10.60;99.90
52451;DHT22;38366;53.176;6.540;2023-04-24T13:49:07;10.60;99.90
52451;DHT22;38366;53.176;6.540;2023-04-24T13:51:33;10.60;99.90
52451;DHT22;38366;53.176;6.540;2023-04-24T13:53:59;10.60;99.90
52451;DHT22;38366;53.176;6.540;2023-04-24T13:56:25;10.60;99.90
52451;DHT22;38366;53.176;6.540;2023-04-24T13:58:51;10.60;99.90
52451;DHT22;38366;53.176;6.540;2023-04-24T14:01:17;10.60;99.90
52451;DHT22;38366;53.176;6.540;2023-04-24T14:03:43;10.60;99.90
52451;DHT22;38366;53.176;6.540;2023-04-24T14:06:09;10.40;99.90
52451;DHT22;38366;53.176;6.540;2023-04-24T14:08:34;10.30;99.90
52451;DHT22;38366;53.176;6.540;2023-04-24T14:11:00;10.10;99.90
52451;DHT22;38366;53.176;6.540;2023-04-24T14:13:26;10.00;99.90
52451;DHT22;38366;53.176;6.540;2023-04-24T14:15:53;9.80;99.90
52451;DHT22;38366;53.176;6.540;2023-04-24T14:18:18;9.70;99.90
52451;DHT22;38366;53.176;6.540;2023-04-24T14:20:44;9.70;99.90
52451;DHT22;38366;53.176;6.540;2023-04-24T14:23:10;9.70;99.90
52451;DHT22;38366;53.176;6.540;2023-04-24T14:25:36;9.70;99.90
52451;DHT22;38366;53.176;6.540;2023-04-24T14:28:02;9.70;99.90
52451;DHT22;38366;53.176;6.540;2023-04-24T14:30:27;9.80;99.90
52451;DHT22;38366;53.176;6.540;2023-04-24T14:32:53;9.80;99.90
52451;DHT22;38366;53.176;6.540;2023-04-24T14:35:19;9.80;99.90
52451;DHT22;38366;53.176;6.540;2023-04-24T14:37:45;9.80;99.90
52451;DHT22;38366;53.176;6.540;2023-04-24T14:40:10;9.90;99.90
52451;DHT22;38366;53.176;6.540;2023-04-24T14:42:36;10.00;99.90
52451;DHT22;38366;53.176;6.540;2023-04-24T14:45:02;10.10;99.90
52451;DHT22;38366;53.176;6.540;2023-04-24T14:47:28;10.20;99.90
52451;DHT22;38366;53.176;6.540;2023-04-24T14:49:54;10.30;99.90
52451;DHT22;38366;53.176;6.540;2023-04-24T14:52:20;10.30;99.90
52451;DHT22;38366;53.176;6.540;2023-04-24T14:54:46;10.30;99.90
52451;DHT22;38366;53.176;6.540;2023-04-24T14:57:11;10.30;99.90
52451;DHT22;38366;53.176;6.540;2023-04-24T14:59:37;10.20;99.90
52451;DHT22;38366;53.176;6.540;2023-04-24T15:02:03;10.20;99.90
52451;DHT22;38366;53.176;6.540;2023-04-24T15:04:29;10.10;99.90
52451;DHT22;38366;53.176;6.540;2023-04-24T15:06:56;10.10;99.90
52451;DHT22;38366;53.176;6.540;2023-04-24T15:09:23;10.00;99.90
52451;DHT22;38366;53.176;6.540;2023-04-24T15:11:50;10.00;99.90
52451;DHT22;38366;53.176;6.540;2023-04-24T15:14:17;10.00;99.90
52451;DHT22;38366;53.176;6.540;2023-04-24T15:16:43;10.00;99.90
52451;DHT22;38366;53.176;6.540;2023-04-24T15:19:09;10.10;99.90
52451;DHT22;38366;53.176;6.540;2023-04-24T15:21:38;10.10;99.90
52451;DHT22;38366;53.176;6.540;2023-04-24T15:24:05;10.10;99.90
52451;DHT22;38366;53.176;6.540;2023-04-24T15:26:31;10.00;99.90
52451;DHT22;38366;53.176;6.540;2023-04-24T15:28:57;10.00;99.90
52451;DHT22;38366;53.176;6.540;2023-04-24T15:31:23;9.90;99.90
52451;DHT22;38366;53.176;6.540;2023-04-24T15:33:51;9.90;99.90
52451;DHT22;38366;53.176;6.540;2023-04-24T15:36:17;9.90;99.90
52451;DHT22;38366;53.176;6.540;2023-04-24T15:38:44;10.00;99.90
52451;DHT22;38366;53.176;6.540;2023-04-24T15:41:10;10.00;99.90
52451;DHT22;38366;53.176;6.540;2023-04-24T15:43:36;10.00;99.90